Time;durP1;ratioP1;P1;durP2;ratioP2;P2;SDS_P1;SDS_P2;PMS_P1;PMS_P2;Temp;Humidity;BMP_temperature;BMP_pressure;BME280_temperature;BME280_humidity;BME280_pressure;Samples;Min_cycle;Max_cycle;Signal;HPM_P1;HPM_P2
2022/04/02 00:01:51;;;;;;;6.00;2.87;;;1.20;60.70;;;;;;5033349;28;20493;-68
2022/04/02 00:04:16;;;;;;;4.97;2.77;;;1.20;60.50;;;;;;5032199;28;20446;-69
2022/04/02 00:06:42;;;;;;;5.80;2.63;;;1.20;61.20;;;;;;5026402;28;20023;-69
2022/04/02 00:09:07;;;;;;;5.20;3.03;;;1.20;61.40;;;;;;5032872;28;20401;-69
2022/04/02 00:11:33;;;;;;;5.40;3.00;;;1.20;61.00;;;;;;5033744;28;20477;-68
2022/04/02 00:13:59;;;;;;;8.37;3.00;;;1.20;61.70;;;;;;5032712;28;20099;-69
2022/04/02 00:16:25;;;;;;;7.03;3.10;;;1.10;62.10;;;;;;5028986;28;20497;-68
2022/04/02 00:18:50;;;;;;;7.60;3.10;;;1.10;62.40;;;;;;5027473;28;20033;-68
2022/04/02 00:21:17;;;;;;;6.57;2.80;;;1.10;62.50;;;;;;5033821;28;20032;-68
2022/04/02 00:23:46;;;;;;;5.17;2.90;;;1.00;62.50;;;;;;5031310;28;20049;-68
2022/04/02 00:26:19;;;;;;;7.00;3.20;;;1.10;62.50;;;;;;5032218;28;20029;-68
2022/04/02 00:28:48;;;;;;;5.23;2.73;;;1.00;62.90;;;;;;5033049;28;20040;-69
2022/04/02 00:31:14;;;;;;;6.40;2.93;;;1.00;63.10;;;;;;5030897;28;20044;-69
2022/04/02 00:33:42;;;;;;;5.97;2.97;;;0.90;64.10;;;;;;5032551;28;20064;-68
2022/04/02 00:36:08;;;;;;;6.60;2.77;;;0.90;63.70;;;;;;5025572;28;20060;-69
2022/04/02 00:38:34;;;;;;;5.03;2.67;;;0.90;63.80;;;;;;5032323;28;20068;-68
2022/04/02 00:41:00;;;;;;;5.30;2.63;;;0.90;63.90;;;;;;5032696;28;20025;-68
2022/04/02 00:43:27;;;;;;;4.27;2.77;;;0.90;64.10;;;;;;5033314;28;20021;-67
2022/04/02 00:45:54;;;;;;;5.93;3.13;;;0.90;65.50;;;;;;5032772;28;20034;-68
2022/04/02 00:48:21;;;;;;;5.37;3.03;;;0.80;64.60;;;;;;5032401;28;20039;-66
2022/04/02 00:50:49;;;;;;;5.40;2.67;;;0.90;64.60;;;;;;5032246;28;20564;-67
2022/04/02 00:53:15;;;;;;;7.83;2.87;;;0.80;65.80;;;;;;5033758;28;20030;-67
2022/04/02 00:55:42;;;;;;;5.10;3.17;;;0.90;65.50;;;;;;5034923;28;20085;-68
2022/04/02 00:58:11;;;;;;;5.80;3.27;;;0.90;66.10;;;;;;5035743;28;20024;-68
2022/04/02 01:00:37;;;;;;;6.47;3.10;;;0.90;66.00;;;;;;5033003;28;20053;-68
2022/04/02 01:03:03;;;;;;;6.80;3.07;;;;;;;;;;5034134;28;20026;-68
2022/04/02 01:05:29;;;;;;;5.57;3.37;;;;;;;;;;5027800;28;20037;-68
2022/04/02 01:07:56;;;;;;;6.53;3.50;;;;;;;;;;5027956;28;20036;-68
2022/04/02 01:10:23;;;;;;;5.33;3.13;;;;;;;;;;5031408;28;20474;-68
2022/04/02 01:12:49;;;;;;;5.80;3.67;;;;;;;;;;5032991;28;20060;-68
2022/04/02 01:15:16;;;;;;;9.53;3.50;;;;;;;;;;5032340;28;20481;-68
2022/04/02 01:17:42;;;;;;;8.37;3.30;;;;;;;;;;5031632;28;20036;-68
2022/04/02 01:20:10;;;;;;;8.13;3.40;;;;;;;;;;5032677;28;20087;-67
2022/04/02 01:22:36;;;;;;;4.73;3.43;;;;;;;;;;5032206;28;20037;-68
2022/04/02 01:25:05;;;;;;;4.73;3.10;;;;;;;;;;5039049;28;20034;-67
2022/04/02 01:27:31;;;;;;;9.10;3.40;;;;;;;;;;5030731;28;20029;-67
2022/04/02 01:29:57;;;;;;;6.23;3.27;;;;;;;;;;5032242;28;20091;-67
2022/04/02 01:32:23;;;;;;;5.50;3.20;;;;;;;;;;5032702;28;20038;-68
2022/04/02 01:34:49;;;;;;;5.30;3.10;;;;;;;;;;5030256;28;20071;-68
2022/04/02 01:37:15;;;;;;;6.33;3.50;;;;;;;;;;5032656;28;20025;-68
2022/04/02 01:39:41;;;;;;;7.87;3.40;;;;;;;;;;5032706;28;20083;-67
2022/04/02 01:42:07;;;;;;;5.27;3.00;;;;;;;;;;5032813;28;20347;-68
2022/04/02 01:44:33;;;;;;;7.27;3.30;;;;;;;;;;5031986;28;20040;-69
2022/04/02 01:47:00;;;;;;;6.20;3.20;;;;;;;;;;5032078;28;20030;-68
2022/04/02 01:49:26;;;;;;;6.30;3.30;;;;;;;;;;5030973;28;20029;-68
2022/04/02 01:51:52;;;;;;;7.17;3.63;;;;;;;;;;5030942;28;20037;-69
2022/04/02 01:54:20;;;;;;;7.57;2.90;;;;;;;;;;5031096;28;20485;-68
2022/04/02 01:56:47;;;;;;;6.40;3.07;;;;;;;;;;5031878;28;20036;-69
2022/04/02 01:59:13;;;;;;;6.43;3.03;;;;;;;;;;5031284;28;20132;-68
2022/04/02 02:01:39;;;;;;;6.20;3.37;;;;;;;;;;5047300;28;20040;-69
2022/04/02 02:04:05;;;;;;;4.83;2.63;;;;;;;;;;5030662;28;20100;-68
2022/04/02 02:06:33;;;;;;;8.67;3.83;;;;;;;;;;5019214;28;20470;-69
2022/04/02 02:08:59;;;;;;;6.40;3.47;;;;;;;;;;5014899;28;20021;-69
2022/04/02 02:11:25;;;;;;;6.97;3.53;;;0.70;69.90;;;;;;5030753;28;20029;-69
2022/04/02 02:13:51;;;;;;;5.37;3.30;;;;;;;;;;5031744;28;20080;-68
2022/04/02 02:16:18;;;;;;;6.70;3.40;;;;;;;;;;5031106;28;20440;-68
2022/04/02 02:18:44;;;;;;;6.47;3.20;;;;;;;;;;5031726;28;20576;-68
2022/04/02 02:21:10;;;;;;;8.07;3.10;;;;;;;;;;5030060;28;20116;-69
2022/04/02 02:23:36;;;;;;;8.00;3.10;;;;;;;;;;5030914;28;20032;-68
2022/04/02 02:26:02;;;;;;;5.93;3.07;;;;;;;;;;5022611;28;20021;-69
2022/04/02 02:28:28;;;;;;;5.13;3.17;;;;;;;;;;5032164;28;20030;-67
2022/04/02 02:30:55;;;;;;;8.33;3.20;;;;;;;;;;5029500;28;20069;-68
2022/04/02 02:36:05;;;;;;;;;;;;;;;;;;5022929;28;20096;-70
2022/04/02 02:38:31;;;;;;;6.23;3.43;;;;;;;;;;5029220;28;19931;-68
2022/04/02 02:40:57;;;;;;;7.40;2.83;;;;;;;;;;5032010;28;20525;-68
2022/04/02 02:43:23;;;;;;;7.03;3.40;;;;;;;;;;5032116;28;20560;-69
2022/04/02 02:45:50;;;;;;;7.43;2.63;;;;;;;;;;5029235;28;20243;-69
2022/04/02 02:48:16;;;;;;;6.03;3.00;;;;;;;;;;5030834;28;20021;-69
2022/04/02 02:50:42;;;;;;;4.90;2.97;;;;;;;;;;5030925;28;20448;-69
2022/04/02 02:53:09;;;;;;;5.90;3.07;;;;;;;;;;5031753;28;20022;-69
2022/04/02 02:55:35;;;;;;;8.13;2.90;;;;;;;;;;5025387;28;20034;-68
2022/04/02 02:58:01;;;;;;;5.73;2.50;;;;;;;;;;5031973;28;20393;-69
2022/04/02 03:00:27;;;;;;;6.77;2.73;;;;;;;;;;5030793;28;20396;-69
2022/04/02 03:02:54;;;;;;;4.50;2.70;;;;;;;;;;5030680;28;20037;-68
2022/04/02 03:05:20;;;;;;;4.73;2.60;;;;;;;;;;5030925;28;20079;-68
2022/04/02 03:07:49;;;;;;;5.60;2.63;;;;;;;;;;5032897;28;20152;-68
2022/04/02 03:10:17;;;;;;;4.93;2.67;;;;;;;;;;5035561;28;20033;-68
2022/04/02 03:12:43;;;;;;;4.13;2.43;;;;;;;;;;5028795;28;20100;-69
2022/04/02 03:15:09;;;;;;;6.70;3.10;;;;;;;;;;5029064;28;20040;-68
2022/04/02 03:17:35;;;;;;;3.57;2.60;;;;;;;;;;5031288;28;20033;-69
2022/04/02 03:20:01;;;;;;;4.13;2.50;;;;;;;;;;5030976;28;20064;-68
2022/04/02 03:22:27;;;;;;;6.03;2.80;;;;;;;;;;5027359;28;20033;-67
2022/04/02 03:24:54;;;;;;;7.40;2.70;;;;;;;;;;5024997;28;20108;-68
2022/04/02 03:27:21;;;;;;;4.40;2.53;;;;;;;;;;5028050;28;20022;-69
2022/04/02 03:29:47;;;;;;;6.50;2.70;;;;;;;;;;5029585;28;20052;-69
2022/04/02 03:32:13;;;;;;;3.63;2.63;;;;;;;;;;5030512;28;20486;-68
2022/04/02 03:34:39;;;;;;;4.73;2.50;;;;;;;;;;5029051;28;20029;-68
2022/04/02 03:37:05;;;;;;;8.73;3.57;;;;;;;;;;5030890;28;20036;-69
2022/04/02 03:39:31;;;;;;;7.37;2.40;;;;;;;;;;5030775;28;20029;-68
2022/04/02 03:41:57;;;;;;;5.60;3.17;;;0.90;74.10;;;;;;5029388;28;20025;-69
2022/04/02 03:44:23;;;;;;;9.57;3.20;;;;;;;;;;5029316;28;20036;-68
2022/04/02 03:49:33;;;;;;;8.63;3.00;;;;;;;;;;5023230;28;20060;-69
2022/04/02 03:51:59;;;;;;;4.57;2.47;;;;;;;;;;5031234;28;20025;-69
2022/04/02 03:54:25;;;;;;;5.50;2.63;;;;;;;;;;5031117;28;20104;-68
2022/04/02 03:56:51;;;;;;;5.87;2.27;;;;;;;;;;5030922;28;20071;-68
2022/04/02 03:59:18;;;;;;;4.00;2.37;;;;;;;;;;5034217;28;20104;-68
2022/04/02 04:01:44;;;;;;;7.50;2.53;;;;;;;;;;5028757;28;20052;-69
2022/04/02 04:04:10;;;;;;;6.93;2.33;;;;;;;;;;5032775;28;20029;-68
2022/04/02 04:06:37;;;;;;;5.53;2.60;;;;;;;;;;5033695;28;20415;-68
2022/04/02 04:09:03;;;;;;;8.23;2.80;;;;;;;;;;5032980;28;20032;-68
2022/04/02 04:11:29;;;;;;;6.23;2.83;;;;;;;;;;5032520;28;20112;-68
2022/04/02 04:13:56;;;;;;;8.53;2.53;;;;;;;;;;5034055;28;20112;-69
2022/04/02 04:16:22;;;;;;;4.30;2.47;;;;;;;;;;5029442;28;20447;-68
2022/04/02 04:18:48;;;;;;;4.13;2.50;;;;;;;;;;5024554;28;20391;-68
2022/04/02 04:21:14;;;;;;;4.50;2.67;;;;;;;;;;5026388;28;20178;-68
2022/04/02 04:23:43;;;;;;;4.17;2.40;;;;;;;;;;5033850;28;20033;-67
2022/04/02 04:26:11;;;;;;;5.23;2.40;;;;;;;;;;5031617;28;20029;-67
2022/04/02 04:28:37;;;;;;;4.83;3.07;;;;;;;;;;5025165;28;20021;-67
2022/04/02 04:31:04;;;;;;;3.83;2.30;;;;;;;;;;5033763;28;20103;-67
2022/04/02 04:33:30;;;;;;;5.77;2.40;;;;;;;;;;5033838;28;20109;-66
2022/04/02 04:35:56;;;;;;;5.93;2.57;;;;;;;;;;5031980;28;20072;-67
2022/04/02 04:38:22;;;;;;;3.43;2.50;;;;;;;;;;5033992;28;20032;-68
2022/04/02 04:40:48;;;;;;;5.97;3.07;;;;;;;;;;5032762;28;20034;-69
2022/04/02 04:43:14;;;;;;;6.23;2.43;;;;;;;;;;5034203;28;20029;-68
2022/04/02 04:45:40;;;;;;;6.23;2.67;;;;;;;;;;5033080;28;20025;-68
2022/04/02 04:48:06;;;;;;;6.57;2.97;;;;;;;;;;5033310;28;20032;-68
2022/04/02 04:50:32;;;;;;;4.73;2.33;;;;;;;;;;5033438;28;20478;-69
2022/04/02 04:52:58;;;;;;;7.43;2.60;;;;;;;;;;5032989;28;20038;-68
2022/04/02 04:55:24;;;;;;;6.80;2.87;;;;;;;;;;5033136;28;20033;-68
2022/04/02 04:57:51;;;;;;;5.27;2.30;;;;;;;;;;5034208;28;20029;-68
2022/04/02 05:00:17;;;;;;;6.33;2.63;;;;;;;;;;5034074;28;20544;-68
2022/04/02 05:02:47;;;;;;;7.40;3.10;;;;;;;;;;5029970;28;20041;-68
2022/04/02 05:05:13;;;;;;;5.33;2.73;;;;;;;;;;5033267;28;20045;-68
2022/04/02 05:07:42;;;;;;;5.50;2.77;;;;;;;;;;5032981;28;20087;-68
2022/04/02 05:10:09;;;;;;;4.47;2.70;;;;;;;;;;5033229;28;20027;-68
2022/04/02 05:12:38;;;;;;;6.83;2.70;;;;;;;;;;5032389;28;20033;-68
2022/04/02 05:15:08;;;;;;;8.10;3.00;;;;;;;;;;5024720;28;20093;-68
2022/04/02 05:17:34;;;;;;;6.23;2.97;;;;;;;;;;5034071;28;20132;-68
2022/04/02 05:20:00;;;;;;;4.97;2.50;;;;;;;;;;5032152;28;20026;-66
2022/04/02 05:22:26;;;;;;;7.50;2.90;;;;;;;;;;5034073;28;20033;-69
2022/04/02 05:24:53;;;;;;;7.03;2.60;;;;;;;;;;5027333;28;20037;-69
2022/04/02 05:27:20;;;;;;;3.40;2.43;;;;;;;;;;5031223;28;20065;-68
2022/04/02 05:29:46;;;;;;;5.33;2.70;;;;;;;;;;5032361;28;20032;-69
2022/04/02 05:32:12;;;;;;;6.13;2.80;;;;;;;;;;5031352;28;20033;-69
2022/04/02 05:34:38;;;;;;;6.47;3.53;;;;;;;;;;5032567;28;20022;-68
2022/04/02 05:37:04;;;;;;;5.80;2.63;;;;;;;;;;5031781;28;20474;-69
2022/04/02 05:39:30;;;;;;;4.93;2.50;;;;;;;;;;5033216;28;20033;-69
2022/04/02 05:41:57;;;;;;;4.53;2.60;;;;;;;;;;5032308;28;20038;-68
2022/04/02 05:44:24;;;;;;;4.57;2.50;;;;;;;;;;5033032;28;20025;-69
2022/04/02 05:46:50;;;;;;;5.07;2.50;;;;;;;;;;5032394;28;20083;-67
2022/04/02 05:49:16;;;;;;;6.37;2.23;;;;;;;;;;5033055;28;20061;-68
2022/04/02 05:51:42;;;;;;;4.70;2.60;;;;;;;;;;5031800;28;20497;-70
2022/04/02 05:54:09;;;;;;;5.93;3.00;;;;;;;;;;5024157;28;20029;-69
2022/04/02 05:56:35;;;;;;;5.17;3.23;;;;;;;;;;5036596;28;20029;-69
2022/04/02 05:59:02;;;;;;;5.80;2.60;;;;;;;;;;5040410;28;20085;-69
2022/04/02 06:01:28;;;;;;;4.90;3.27;;;;;;;;;;5038405;28;20133;-68
2022/04/02 06:03:54;;;;;;;6.00;3.20;;;;;;;;;;5041859;28;20030;-69
2022/04/02 06:06:20;;;;;;;7.03;3.10;;;;;;;;;;5041076;28;20091;-68
2022/04/02 06:08:46;;;;;;;3.93;2.60;;;;;;;;;;5039870;28;20029;-69
2022/04/02 06:11:12;;;;;;;6.80;3.00;;;;;;;;;;5040558;28;20040;-70
2022/04/02 06:13:38;;;;;;;4.80;2.97;;;;;;;;;;5039684;28;20041;-69
2022/04/02 06:16:06;;;;;;;9.50;2.80;;;;;;;;;;5038306;28;20063;-70
2022/04/02 06:18:32;;;;;;;4.20;2.70;;;;;;;;;;5042502;28;20422;-71
2022/04/02 06:21:02;;;;;;;5.87;3.07;;;;;;;;;;5044412;28;20503;-71
2022/04/02 06:23:28;;;;;;;5.37;2.90;;;1.00;74.50;;;;;;5036339;28;20017;-71
2022/04/02 06:25:54;;;;;;;3.92;2.58;;;;;;;;;;5025546;28;20490;-70
2022/04/02 06:28:20;;;;;;;5.03;2.90;;;;;;;;;;5034691;28;20044;-72
2022/04/02 06:30:46;;;;;;;4.57;2.75;;;;;;;;;;5023313;28;20030;-72
2022/04/02 06:33:11;;;;;;;4.80;2.60;;;5.30;63.80;;;;;;5030111;28;20048;-72
2022/04/02 06:35:38;;;;;;;3.45;2.80;;;5.20;59.80;;;;;;5034989;28;20466;-73
2022/04/02 06:38:04;;;;;;;5.82;2.70;;;6.00;58.10;;;;;;5032420;28;20053;-75
2022/04/02 06:40:29;;;;;;;5.85;2.70;;;7.10;55.40;;;;;;5029600;28;20501;-71
2022/04/02 06:42:57;;;;;;;5.05;2.38;;;;;;;;;;5033364;28;20034;-73
2022/04/02 06:45:23;;;;;;;6.70;2.75;;;;;;;;;;5030685;28;20102;-72
2022/04/02 06:47:49;;;;;;;4.93;2.70;;;;;;;;;;5024430;28;20120;-72
2022/04/02 06:50:15;;;;;;;6.20;2.47;;;;;;;;;;5027312;28;20025;-73
2022/04/02 06:52:42;;;;;;;7.28;3.20;;;;;;;;;;5029032;28;20029;-72
2022/04/02 06:55:11;;;;;;;5.50;3.10;;;;;;;;;;5025824;28;20405;-72
2022/04/02 06:57:45;;;;;;;7.53;2.83;;;3.80;62.20;;;;;;5030026;28;20025;-73
2022/04/02 07:00:12;;;;;;;5.20;2.63;;;;;;;;;;5026255;28;20112;-70
2022/04/02 07:02:38;;;;;;;6.90;2.80;;;4.40;61.70;;;;;;5030414;28;20033;-71
2022/04/02 07:05:05;;;;;;;5.63;2.90;;;4.00;62.80;;;;;;5030690;28;20036;-71
2022/04/02 07:07:31;;;;;;;7.03;2.63;;;3.70;63.70;;;;;;5029653;28;20024;-72
2022/04/02 07:09:57;;;;;;;7.10;2.57;;;3.30;65.70;;;;;;5032234;28;20018;-70
2022/04/02 07:12:23;;;;;;;5.37;2.50;;;3.70;65.10;;;;;;5031272;28;20025;-69
2022/04/02 07:14:49;;;;;;;4.33;2.50;;;;;;;;;;5033142;28;20029;-72
2022/04/02 07:17:14;;;;;;;6.10;2.50;;;3.50;64.60;;;;;;5028237;28;20033;-71
2022/04/02 07:19:41;;;;;;;6.17;2.73;;;;;;;;;;5027691;28;20089;-73
2022/04/02 07:22:09;;;;;;;11.13;3.80;;;;;;;;;;5040072;28;20025;-77
2022/04/02 07:24:39;;;;;;;6.20;3.37;;;;;;;;;;5041464;28;20105;-72
2022/04/02 07:27:05;;;;;;;5.87;3.20;;;;;;;;;;5029921;28;20040;-71
2022/04/02 07:29:32;;;;;;;5.17;2.73;;;;;;;;;;5025331;28;20030;-72
2022/04/02 07:31:58;;;;;;;6.07;2.77;;;;;;;;;;5029945;28;20030;-72
2022/04/02 07:34:24;;;;;;;5.33;2.13;;;;;;;;;;5032755;28;20508;-72
2022/04/02 07:37:05;;;;;;;7.47;3.20;;;;;;;;;;5033047;28;20037;-72
2022/04/02 07:39:37;;;;;;;5.03;2.73;;;;;;;;;;5039926;28;20085;-72
2022/04/02 07:42:04;;;;;;;7.10;2.60;;;;;;;;;;5038241;28;20033;-72
2022/04/02 07:44:56;;;;;;;3.93;2.43;;;;;;;;;;5032857;28;20025;-72
2022/04/02 07:47:24;;;;;;;4.87;2.77;;;;;;;;;;5032601;28;20029;-71
2022/04/02 07:49:54;;;;;;;4.87;2.37;;;;;;;;;;5033905;28;20029;-73
2022/04/02 07:52:21;;;;;;;4.37;2.30;;;;;;;;;;5032420;28;20108;-72
2022/04/02 07:54:48;;;;;;;5.43;2.53;;;;;;;;;;5033519;28;20136;-72
2022/04/02 07:57:14;;;;;;;5.43;2.87;;;;;;;;;;5034457;28;20037;-71
2022/04/02 07:59:42;;;;;;;5.57;2.40;;;;;;;;;;5031785;28;20485;-72
2022/04/02 08:02:36;;;;;;;5.77;3.23;;;;;;;;;;5033642;28;20385;-71
2022/04/02 08:04:59;;;;;;;8.97;2.53;;;;;;;;;;5031112;28;20456;-72
2022/04/02 08:07:28;;;;;;;5.10;2.90;;;3.90;58.50;;;;;;5032474;28;20416;-71
2022/04/02 08:09:55;;;;;;;5.13;2.90;;;;;;;;;;5033063;28;20029;-72
2022/04/02 08:12:21;;;;;;;6.63;2.47;;;;;;;;;;5033822;28;20067;-72
2022/04/02 08:14:48;;;;;;;5.03;2.57;;;;;;;;;;5034823;28;20084;-73
2022/04/02 08:17:14;;;;;;;3.50;2.23;;;;;;;;;;5032937;28;20067;-73
2022/04/02 08:19:40;;;;;;;5.73;2.50;;;;;;;;;;5035232;28;20108;-73
2022/04/02 08:22:06;;;;;;;7.87;2.80;;;;;;;;;;5034548;28;20036;-73
2022/04/02 08:24:32;;;;;;;4.87;2.50;;;;;;;;;;5039862;28;20037;-72
2022/04/02 08:27:03;;;;;;;5.53;2.40;;;;;;;;;;5033985;28;20026;-72
2022/04/02 08:29:44;;;;;;;4.97;2.40;;;;;;;;;;5038485;28;20074;-72
2022/04/02 08:32:31;;;;;;;3.77;2.60;;;;;;;;;;5034030;28;20108;-73
2022/04/02 08:35:16;;;;;;;4.97;2.40;;;4.10;52.30;;;;;;5034177;28;20065;-72
2022/04/02 08:38:07;;;;;;;6.70;2.13;;;4.00;52.20;;;;;;5028925;28;20489;-72
2022/04/02 08:41:11;;;;;;;4.27;2.10;;;4.10;51.10;;;;;;5033122;28;20037;-74
2022/04/02 08:43:55;;;;;;;4.33;2.13;;;;;;;;;;5033911;28;20068;-73
2022/04/02 08:46:47;;;;;;;3.58;2.25;;;;;;;;;;5027372;28;20029;-72
2022/04/02 08:49:24;;;;;;;4.90;2.30;;;;;;;;;;5015888;28;20061;-72
2022/04/02 08:52:09;;;;;;;5.00;2.27;;;;;;;;;;5036815;28;20025;-71
2022/04/02 08:54:39;;;;;;;4.18;2.38;;;;;;;;;;5029275;28;20102;-72
2022/04/02 08:57:43;;;;;;;3.83;2.60;;;4.00;49.30;;;;;;5027388;28;20025;-73
2022/04/02 09:00:12;;;;;;;7.67;4.23;;;4.00;50.00;;;;;;4990854;28;20066;-72
2022/04/02 09:02:41;;;;;;;3.80;2.50;;;;;;;;;;5022973;28;20033;-73
2022/04/02 09:05:28;;;;;;;3.87;2.40;;;4.10;48.90;;;;;;5046099;28;20028;-72
2022/04/02 09:08:30;;;;;;;3.73;2.80;;;4.20;49.80;;;;;;5027907;28;20108;-72
2022/04/02 09:11:21;;;;;;;4.27;2.57;;;4.30;49.10;;;;;;5029396;28;20022;-73
2022/04/02 09:14:00;;;;;;;5.63;2.80;;;4.20;48.50;;;;;;5024980;28;20042;-72
2022/04/02 09:16:46;;;;;;;3.90;2.50;;;4.20;48.50;;;;;;5030972;28;20037;-73
2022/04/02 09:19:25;;;;;;;2.53;2.20;;;;;;;;;;5034594;28;20021;-73
2022/04/02 09:22:07;;;;;;;7.97;3.40;;;4.70;46.60;;;;;;5031268;28;21210;-71
2022/04/02 09:24:58;;;;;;;3.93;2.57;;;4.60;46.80;;;;;;5020996;28;20036;-73
2022/04/02 09:27:50;;;;;;;4.68;2.85;;;4.60;46.70;;;;;;5025290;28;20501;-73
2022/04/02 09:30:28;;;;;;;5.70;3.40;;;;;;;;;;5028069;28;20041;-72
2022/04/02 09:33:05;;;;;;;5.90;3.33;;;;;;;;;;5029943;28;20135;-72
2022/04/02 09:35:37;;;;;;;4.90;3.17;;;;;;;;;;5031529;28;20398;-72
2022/04/02 09:38:13;;;;;;;4.30;2.92;;;;;;;;;;5030486;28;20030;-72
2022/04/02 09:40:43;;;;;;;3.08;2.70;;;;;;;;;;5033159;28;20029;-72
2022/04/02 09:43:31;;;;;;;4.00;2.90;;;;;;;;;;5033505;28;20057;-71
2022/04/02 09:45:57;;;;;;;3.50;2.88;;;;;;;;;;5031862;28;20030;-72
2022/04/02 09:48:24;;;;;;;5.15;3.00;;;;;;;;;;5026892;28;20034;-72
2022/04/02 09:50:55;;;;;;;5.63;3.45;;;;;;;;;;5037721;28;20033;-72
2022/04/02 09:53:29;;;;;;;5.00;2.88;;;;;;;;;;5032376;28;20037;-72
2022/04/02 09:56:08;;;;;;;6.50;2.80;;;;;;;;;;5031019;28;20128;-71
2022/04/02 09:58:53;;;;;;;3.40;3.03;;;;;;;;;;5025519;28;20033;-71
2022/04/02 10:01:26;;;;;;;7.30;3.38;;;;;;;;;;5031007;28;20033;-70
2022/04/02 10:03:53;;;;;;;4.85;3.03;;;;;;;;;;5032684;28;20017;-72
2022/04/02 10:06:23;;;;;;;5.20;3.05;;;;;;;;;;5029144;28;20419;-71
2022/04/02 10:09:08;;;;;;;4.80;3.40;;;;;;;;;;5031610;28;20489;-72
2022/04/02 10:11:35;;;;;;;;;;;;;;;;;;5035313;28;20036;-71
2022/04/02 10:14:02;;;;;;;4.35;3.38;;;;;;;;;;5045001;28;19992;-72
2022/04/02 10:16:29;;;;;;;7.25;3.28;;;;;;;;;;5043640;28;20030;-72
2022/04/02 10:18:56;;;;;;;5.05;3.17;;;;;;;;;;5037845;28;20124;-72
2022/04/02 10:21:22;;;;;;;4.15;3.38;;;;;;;;;;5033181;28;20037;-71
2022/04/02 10:23:52;;;;;;;8.00;3.20;;;;;;;;;;5030720;28;20057;-72
2022/04/02 10:26:22;;;;;;;5.70;3.05;;;;;;;;;;5023030;28;20112;-72
2022/04/02 10:28:51;;;;;;;4.45;3.13;;;;;;;;;;5025462;28;20041;-72
2022/04/02 10:31:32;;;;;;;4.10;3.28;;;;;;;;;;5027129;28;20693;-72
2022/04/02 10:34:04;;;;;;;4.65;3.55;;;;;;;;;;5036176;28;20032;-72
2022/04/02 10:36:31;;;;;;;5.18;3.60;;;;;;;;;;5036423;28;20056;-74
2022/04/02 10:38:57;;;;;;;5.45;3.10;;;;;;;;;;5015387;28;20036;-71
2022/04/02 10:41:27;;;;;;;7.85;4.13;;;;;;;;;;5042685;28;20060;-72
2022/04/02 10:44:10;;;;;;;6.68;3.60;;;;;;;;;;5050255;28;20025;-72
2022/04/02 10:46:38;;;;;;;5.68;3.45;;;;;;;;;;5040378;28;20032;-72
2022/04/02 10:49:05;;;;;;;6.30;3.92;;;;;;;;;;5047977;28;20029;-73
2022/04/02 10:51:34;;;;;;;4.13;3.13;;;;;;;;;;5036464;28;20026;-72
2022/04/02 10:54:01;;;;;;;6.57;3.47;;;;;;;;;;5042634;28;20025;-73
2022/04/02 10:56:47;;;;;;;6.05;3.72;;;;;;;;;;5044766;28;20029;-72
2022/04/02 10:59:14;;;;;;;8.05;3.50;;;;;;;;;;5026762;28;20048;-73
2022/04/02 11:01:41;;;;;;;4.22;3.58;;;;;;;;;;5039744;28;20078;-71
2022/04/02 11:04:19;;;;;;;4.85;3.22;;;;;;;;;;5030558;28;20029;-70
2022/04/02 11:06:49;;;;;;;6.15;3.00;;;;;;;;;;5039370;28;20045;-72
2022/04/02 11:09:39;;;;;;;6.85;3.05;;;;;;;;;;5039863;28;20405;-71
2022/04/02 11:12:08;;;;;;;6.47;3.30;;;;;;;;;;5030420;28;20037;-71
2022/04/02 11:14:38;;;;;;;5.88;3.20;;;;;;;;;;5033395;28;20044;-70
2022/04/02 11:17:04;;;;;;;4.28;2.58;;;;;;;;;;5032801;28;20055;-71
2022/04/02 11:22:47;;;;;;;5.25;2.75;;;;;;;;;;5024534;28;20044;-72
2022/04/02 11:25:36;;;;;;;6.38;3.00;;;;;;;;;;5034335;28;20033;-74
2022/04/02 11:28:14;;;;;;;5.32;2.80;;;;;;;;;;5027829;28;20076;-71
2022/04/02 11:30:43;;;;;;;3.95;2.58;;;;;;;;;;5033012;28;20083;-71
2022/04/02 11:33:29;;;;;;;3.53;2.55;;;;;;;;;;5035819;28;20366;-73
2022/04/02 11:35:58;;;;;;;4.90;2.80;;;;;;;;;;5035803;28;20041;-72
2022/04/02 11:38:36;;;;;;;5.15;2.78;;;;;;;;;;5035459;28;20022;-72
2022/04/02 11:41:08;;;;;;;4.85;2.53;;;;;;;;;;5032928;28;20025;-72
2022/04/02 11:43:36;;;;;;;4.95;2.90;;;;;;;;;;5032375;28;20033;-72
2022/04/02 11:46:03;;;;;;;4.20;2.50;;;;;;;;;;5034413;28;20035;-72
2022/04/02 11:48:32;;;;;;;8.02;2.60;;;;;;;;;;5034297;28;20087;-71
2022/04/02 11:51:10;;;;;;;5.00;2.97;;;;;;;;;;5040868;28;20036;-71
2022/04/02 11:53:38;;;;;;;4.75;2.45;;;;;;;;;;5034720;28;20025;-71
2022/04/02 11:56:21;;;;;;;4.93;2.45;;;;;;;;;;5028459;28;20022;-66
2022/04/02 11:58:48;;;;;;;5.03;2.50;;;;;;;;;;5032639;28;20037;-71
2022/04/02 12:01:15;;;;;;;5.32;2.53;;;;;;;;;;5018873;28;20607;-71
2022/04/02 12:03:41;;;;;;;3.92;2.10;;;;;;;;;;5030931;28;20021;-70
2022/04/02 12:06:11;;;;;;;4.43;2.55;;;;;;;;;;5027868;28;20520;-70
2022/04/02 12:08:40;;;;;;;6.57;2.78;;;;;;;;;;5029895;28;20068;-70
2022/04/02 12:11:09;;;;;;;4.63;3.10;;;;;;;;;;5030807;28;20057;-70
2022/04/02 12:13:35;;;;;;;2.97;2.33;;;;;;;;;;5019745;28;20033;-69
2022/04/02 12:16:08;;;;;;;6.95;2.72;;;;;;;;;;5022241;28;20516;-70
2022/04/02 12:18:48;;;;;;;6.30;2.78;;;;;;;;;;5026732;28;20032;-70
2022/04/02 12:21:16;;;;;;;3.55;2.88;;;;;;;;;;5029998;28;20029;-70
2022/04/02 12:23:55;;;;;;;4.93;3.20;;;;;;;;;;5028082;28;20034;-71
2022/04/02 12:26:22;;;;;;;4.37;2.67;;;;;;;;;;5027031;28;20037;-74
2022/04/02 12:28:48;;;;;;;4.53;2.67;;;;;;;;;;5025130;28;20481;-71
2022/04/02 12:31:15;;;;;;;4.65;2.75;;;;;;;;;;5030304;28;20532;-72
2022/04/02 12:33:50;;;;;;;4.20;2.40;;;;;;;;;;5032052;28;20022;-71
2022/04/02 12:36:16;;;;;;;5.13;3.00;;;;;;;;;;5029128;28;20026;-71
2022/04/02 12:38:43;;;;;;;4.72;2.35;;;;;;;;;;5022967;28;20037;-72
2022/04/02 12:41:20;;;;;;;3.67;2.22;;;;;;;;;;5028073;28;20025;-72
2022/04/02 12:43:47;;;;;;;4.60;2.35;;;;;;;;;;5031926;28;20025;-70
2022/04/02 12:46:24;;;;;;;4.97;2.38;;;;;;;;;;5031049;28;20025;-70
2022/04/02 12:48:50;;;;;;;3.95;2.00;;;;;;;;;;5029558;28;20026;-73
2022/04/02 12:51:17;;;;;;;4.57;2.38;;;;;;;;;;5032545;28;20086;-71
2022/04/02 12:53:47;;;;;;;5.47;3.17;;;;;;;;;;5035929;28;20067;-71
2022/04/02 12:56:17;;;;;;;3.70;2.65;;;;;;;;;;5031912;28;20026;-70
2022/04/02 12:58:44;;;;;;;4.45;3.05;;;;;;;;;;5029241;28;20029;-71
2022/04/02 13:01:17;;;;;;;4.77;2.27;;;;;;;;;;5029398;28;20028;-70
2022/04/02 13:03:54;;;;;;;5.37;2.47;;;;;;;;;;5030870;28;20026;-73
2022/04/02 13:06:24;;;;;;;5.23;2.27;;;;;;;;;;5033464;28;20470;-71
2022/04/02 13:09:01;;;;;;;4.97;2.13;;;;;;;;;;5036436;28;20018;-72
2022/04/02 13:11:37;;;;;;;3.90;2.03;;;;;;;;;;5031974;28;20603;-72
2022/04/02 13:14:04;;;;;;;5.78;2.70;;;;;;;;;;4994290;28;1053614;-71
2022/04/02 13:16:35;;;;;;;5.93;3.00;;;;;;;;;;5032395;28;20048;-71
2022/04/02 13:21:50;;;;;;;5.73;2.63;;;;;;;;;;5029580;28;20517;-71
2022/04/02 13:24:30;;;;;;;6.35;2.30;;;;;;;;;;5023243;28;20029;-71
2022/04/02 13:27:15;;;;;;;10.68;5.75;;;;;;;;;;5025987;28;20377;-71
2022/04/02 13:29:54;;;;;;;9.95;7.10;;;;;;;;;;5030291;28;20436;-72
2022/04/02 13:32:20;;;;;;;5.75;2.92;;;;;;;;;;5027356;28;20044;-72
2022/04/02 13:35:04;;;;;;;3.95;2.53;;;;;;;;;;5030756;28;20038;-71
2022/04/02 13:37:46;;;;;;;4.90;2.78;;;;;;;;;;5036004;28;20040;-69
2022/04/02 13:40:17;;;;;;;6.65;3.50;;;;;;;;;;5032244;28;20108;-72
2022/04/02 13:42:51;;;;;;;4.47;3.13;;;;;;;;;;5028800;28;20028;-71
2022/04/02 13:45:17;;;;;;;6.38;3.25;;;;;;;;;;5027344;28;20511;-72
2022/04/02 13:47:43;;;;;;;5.97;3.30;;;;;;;;;;5025567;28;20044;-70
2022/04/02 13:50:12;;;;;;;4.32;2.47;;;;;;;;;;5026075;28;20025;-70
2022/04/02 13:52:49;;;;;;;5.32;2.80;;;;;;;;;;5028882;28;20508;-70
2022/04/02 13:55:16;;;;;;;4.55;2.83;;;;;;;;;;5031109;28;20033;-72
2022/04/02 13:57:44;;;;;;;6.27;2.80;;;;;;;;;;5030305;28;20032;-71
2022/04/02 14:00:14;;;;;;;8.70;2.87;;;;;;;;;;5032318;28;20053;-71
2022/04/02 14:02:41;;;;;;;5.47;2.50;;;;;;;;;;5032599;28;20029;-71
2022/04/02 14:05:07;;;;;;;5.57;2.47;;;;;;;;;;5028633;28;20117;-71
2022/04/02 14:07:36;;;;;;;4.03;2.30;;;;;;;;;;5032236;28;20480;-71
2022/04/02 14:10:12;;;;;;;5.97;2.40;;;;;;;;;;5031254;28;20109;-70
2022/04/02 14:12:42;;;;;;;9.03;2.37;;;;;;;;;;5033536;28;20109;-69
2022/04/02 14:15:13;;;;;;;3.67;2.37;;;;;;;;;;5031471;28;20470;-71
2022/04/02 14:17:40;;;;;;;4.10;2.10;;;;;;;;;;5026435;28;20121;-72
2022/04/02 14:20:08;;;;;;;4.57;2.30;;;;;;;;;;5032596;28;20052;-70
2022/04/02 14:22:49;;;;;;;5.30;3.33;;;;;;;;;;5031890;28;20028;-70
2022/04/02 14:25:27;;;;;;;6.93;2.40;;;;;;;;;;5033178;28;20029;-69
2022/04/02 14:28:15;;;;;;;3.93;2.20;;;;;;;;;;5033063;28;20037;-70
2022/04/02 14:30:54;;;;;;;5.90;2.47;;;;;;;;;;5028953;28;20824;-66
2022/04/02 14:33:47;;;;;;;5.23;2.13;;;;;;;;;;5021247;28;20052;-72
2022/04/02 14:36:37;;;;;;;4.17;2.20;;;;;;;;;;5032348;28;20041;-70
2022/04/02 14:39:10;;;;;;;5.63;2.50;;;;;;;;;;5031282;28;20037;-72
2022/04/02 14:41:54;;;;;;;4.17;1.90;;;;;;;;;;5031746;28;20056;-71
2022/04/02 14:44:32;;;;;;;5.50;2.10;;;;;;;;;;5031617;28;20548;-70
2022/04/02 14:47:01;;;;;;;4.97;2.40;;;;;;;;;;5031227;28;20022;-70
2022/04/02 14:49:46;;;;;;;4.10;2.20;;;;;;;;;;5031535;28;20036;-71
2022/04/02 14:52:30;;;;;;;4.93;2.38;;;;;;;;;;5032260;28;20069;-70
2022/04/02 14:55:05;;;;;;;5.77;2.30;;;;;;;;;;5031540;28;20028;-69